Time;durP1;ratioP1;P1;durP2;ratioP2;P2;SDS_P1;SDS_P2;PMS_P1;PMS_P2;Temp;Humidity;BMP_temperature;BMP_pressure;BME280_temperature;BME280_humidity;BME280_pressure;Samples;Min_cycle;Max_cycle;Signal;HPM_P1;HPM_P2
2021/12/31 00:01:56;;;;;;;;;1.00;1.00;11.90;99.90;;;;;;5033990;28;11422;-55
2021/12/31 00:04:27;;;;;;;;;1.75;1.75;11.90;99.90;;;;;;5025034;28;11435;-55
2021/12/31 00:07:01;;;;;;;;;1.00;1.00;11.90;99.90;;;;;;5030044;28;12227;-54
2021/12/31 00:09:32;;;;;;;;;1.00;1.00;11.90;99.90;;;;;;5012767;28;12205;-55
2021/12/31 00:12:04;;;;;;;;;0.00;0.00;11.90;99.90;;;;;;5028675;28;11468;-56
2021/12/31 00:14:36;;;;;;;;;1.00;1.00;11.80;99.90;;;;;;5030128;28;11455;-54
2021/12/31 00:17:05;;;;;;;;;1.25;1.25;11.80;99.90;;;;;;5030213;28;11413;-55
2021/12/31 00:19:42;;;;;;;;;0.00;0.00;11.80;99.90;;;;;;5028507;28;11442;-55
2021/12/31 00:22:39;;;;;;;;;0.75;0.75;11.80;99.90;;;;;;5031435;28;12125;-57
2021/12/31 00:25:04;;;;;;;;;0.25;0.25;11.80;99.90;;;;;;5003737;28;11464;-52
2021/12/31 00:27:39;;;;;;;;;0.00;0.00;11.90;99.90;;;;;;5024324;28;11570;-56
2021/12/31 00:30:14;;;;;;;;;0.50;0.50;11.80;99.90;;;;;;5028770;28;12149;-54
2021/12/31 00:32:46;;;;;;;;;0.00;0.00;11.80;99.90;;;;;;5027772;28;11420;-54
2021/12/31 00:35:17;;;;;;;;;0.00;0.00;11.90;99.90;;;;;;5029669;28;11414;-54
2021/12/31 00:37:49;;;;;;;;;1.00;1.00;11.80;99.90;;;;;;5033312;28;11423;-54
2021/12/31 00:40:22;;;;;;;;;0.00;0.00;11.80;99.90;;;;;;5028785;28;11460;-53
2021/12/31 00:42:53;;;;;;;;;0.00;0.00;11.80;99.90;;;;;;5028933;28;11434;-55
2021/12/31 00:45:28;;;;;;;;;1.00;1.00;11.80;99.90;;;;;;5025827;28;11485;-55
2021/12/31 00:47:58;;;;;;;;;0.00;0.00;11.80;99.90;;;;;;5028304;28;11421;-57
2021/12/31 00:50:28;;;;;;;;;0.00;0.00;11.80;99.90;;;;;;5026346;28;11442;-53
2021/12/31 00:52:59;;;;;;;;;0.75;0.75;11.80;99.90;;;;;;5028265;28;12102;-54
2021/12/31 00:55:31;;;;;;;;;0.00;0.00;11.80;99.90;;;;;;5031144;28;11467;-53
2021/12/31 00:58:01;;;;;;;;;0.00;0.00;11.80;99.90;;;;;;5024747;28;11436;-54
2021/12/31 01:00:33;;;;;;;;;0.00;0.00;11.90;99.90;;;;;;5027171;28;11438;-53
2021/12/31 01:03:05;;;;;;;;;1.00;1.00;11.80;99.90;;;;;;5026629;28;11610;-54
2021/12/31 01:05:35;;;;;;;;;0.00;0.00;11.80;99.90;;;;;;5014311;28;11438;-52
2021/12/31 01:08:06;;;;;;;;;1.00;1.00;11.80;99.90;;;;;;5030113;28;11436;-57
2021/12/31 01:10:36;;;;;;;;;0.00;0.00;11.80;99.90;;;;;;5033719;28;11411;-55
2021/12/31 01:13:11;;;;;;;;;1.00;1.00;11.80;99.90;;;;;;5014970;28;14302;-53
2021/12/31 01:15:46;;;;;;;;;0.25;0.25;11.80;99.90;;;;;;5031860;28;11433;-54
2021/12/31 01:18:21;;;;;;;;;0.00;0.00;11.80;99.90;;;;;;5031939;28;11480;-54
2021/12/31 01:20:52;;;;;;;;;0.00;0.00;11.80;99.90;;;;;;5029329;28;11449;-53
2021/12/31 01:23:23;;;;;;;;;1.00;1.00;11.70;99.90;;;;;;5033500;28;11438;-55
2021/12/31 01:25:53;;;;;;;;;0.00;0.00;11.70;99.90;;;;;;5029123;28;11467;-53
2021/12/31 01:28:24;;;;;;;;;1.00;1.00;11.70;99.90;;;;;;5030813;28;11447;-55
2021/12/31 01:30:54;;;;;;;;;0.00;0.00;11.70;99.90;;;;;;5032691;28;11454;-52
2021/12/31 01:33:25;;;;;;;;;0.50;0.50;11.70;99.90;;;;;;5026538;28;11622;-54
2021/12/31 01:35:56;;;;;;;;;1.00;1.00;11.70;99.90;;;;;;5031068;28;11424;-53
2021/12/31 01:38:29;;;;;;;;;0.00;0.00;11.60;99.90;;;;;;5031617;28;12009;-51
2021/12/31 01:41:00;;;;;;;;;0.00;0.00;11.70;99.90;;;;;;5031683;28;11466;-54
2021/12/31 01:43:31;;;;;;;;;0.00;0.00;11.60;99.90;;;;;;5030602;28;12326;-54
2021/12/31 01:46:10;;;;;;;;;1.00;1.00;11.70;99.90;;;;;;5036480;28;11415;-53
2021/12/31 01:49:04;;;;;;;;;0.00;0.00;11.70;99.90;;;;;;5030974;28;11427;-53
2021/12/31 01:51:36;;;;;;;;;0.50;0.50;11.70;99.90;;;;;;5029178;28;11509;-53
2021/12/31 01:54:07;;;;;;;;;0.00;0.00;11.60;99.90;;;;;;5030806;28;11424;-54
2021/12/31 01:56:37;;;;;;;;;0.00;0.00;11.60;99.90;;;;;;5029389;28;11516;-54
2021/12/31 01:59:15;;;;;;;;;0.50;0.50;11.60;99.90;;;;;;5031556;28;12339;-54
2021/12/31 02:01:49;;;;;;;;;0.00;0.00;11.50;99.90;;;;;;5028188;28;11510;-55
2021/12/31 02:04:20;;;;;;;;;0.00;0.00;11.50;99.90;;;;;;5031061;28;11506;-55
2021/12/31 02:06:52;;;;;;;;;0.00;0.00;11.60;99.90;;;;;;5030846;28;11443;-53
2021/12/31 02:09:22;;;;;;;;;1.50;0.50;11.50;99.90;;;;;;5026039;28;11461;-54
2021/12/31 02:11:55;;;;;;;;;0.00;0.00;11.60;99.90;;;;;;5013076;28;11453;-55
2021/12/31 02:14:26;;;;;;;;;0.00;0.00;11.50;99.90;;;;;;5032209;28;11571;-53
2021/12/31 02:16:56;;;;;;;;;0.00;0.00;11.50;99.90;;;;;;5017134;28;11437;-55
2021/12/31 02:19:28;;;;;;;;;0.00;0.00;11.50;99.90;;;;;;5032431;28;11489;-55
2021/12/31 02:22:00;;;;;;;;;0.00;0.00;11.50;99.90;;;;;;5033442;28;11440;-54
2021/12/31 02:24:31;;;;;;;;;0.75;0.00;11.50;99.90;;;;;;5028269;28;11436;-58
2021/12/31 02:27:02;;;;;;;;;1.50;0.00;11.50;99.90;;;;;;5030397;28;11440;-56
2021/12/31 02:29:33;;;;;;;;;0.00;0.00;11.50;99.90;;;;;;5015242;28;11439;-54
2021/12/31 02:32:04;;;;;;;;;0.00;0.00;11.50;99.90;;;;;;5033811;28;11494;-54
2021/12/31 02:34:36;;;;;;;;;0.00;0.00;11.50;99.90;;;;;;5029773;28;11489;-55
2021/12/31 02:37:07;;;;;;;;;0.00;0.00;11.50;99.90;;;;;;5035378;28;11502;-55
2021/12/31 02:39:42;;;;;;;;;0.00;0.00;11.50;99.90;;;;;;5032222;28;11458;-56
2021/12/31 02:42:13;;;;;;;;;0.00;0.00;11.50;99.90;;;;;;5030917;28;11552;-55
2021/12/31 02:44:45;;;;;;;;;0.25;0.25;11.40;99.90;;;;;;5027295;28;12197;-56
2021/12/31 02:47:16;;;;;;;;;0.00;0.00;11.40;99.90;;;;;;5029184;28;11503;-55
2021/12/31 02:49:48;;;;;;;;;0.00;0.00;11.40;99.90;;;;;;5031161;28;11420;-56
2021/12/31 02:52:18;;;;;;;;;0.00;0.00;11.40;99.90;;;;;;5031724;28;11619;-55
2021/12/31 02:54:51;;;;;;;;;0.00;0.00;11.40;99.90;;;;;;5035144;28;11448;-54
2021/12/31 02:57:21;;;;;;;;;1.75;0.00;11.40;99.90;;;;;;5031324;28;11590;-55
2021/12/31 02:59:52;;;;;;;;;0.75;0.75;11.40;99.90;;;;;;5029778;28;11483;-56
2021/12/31 03:02:25;;;;;;;;;0.00;0.00;11.40;99.90;;;;;;5029078;28;12248;-54
2021/12/31 03:05:00;;;;;;;;;0.50;0.50;11.40;99.90;;;;;;5030573;28;11492;-55
2021/12/31 03:07:36;;;;;;;;;1.00;1.00;11.40;99.90;;;;;;5029451;28;11495;-55
2021/12/31 03:10:15;;;;;;;;;0.00;0.00;11.40;99.90;;;;;;5028825;28;11526;-56
2021/12/31 03:12:48;;;;;;;;;1.00;1.00;11.40;99.90;;;;;;5030553;28;11462;-54
2021/12/31 03:15:18;;;;;;;;;1.00;1.00;11.40;99.90;;;;;;5032051;28;11529;-54
2021/12/31 03:17:52;;;;;;;;;0.00;0.00;11.40;99.90;;;;;;5029593;28;11491;-56
2021/12/31 03:20:36;;;;;;;;;0.00;0.00;11.40;99.90;;;;;;5032405;28;11468;-57
2021/12/31 03:23:07;;;;;;;;;0.25;0.25;11.40;99.90;;;;;;5032240;28;11856;-55
2021/12/31 03:25:38;;;;;;;;;1.50;1.00;11.40;99.90;;;;;;5029173;28;11478;-56
2021/12/31 03:28:09;;;;;;;;;2.00;0.75;11.40;99.90;;;;;;5029635;28;11465;-56
2021/12/31 03:30:40;;;;;;;;;0.00;0.00;11.40;99.90;;;;;;5019771;28;12223;-55
2021/12/31 03:33:16;;;;;;;;;0.25;0.25;11.30;99.90;;;;;;5032605;28;11537;-55
2021/12/31 03:35:46;;;;;;;;;0.25;0.25;11.40;99.90;;;;;;5032411;28;11486;-55
2021/12/31 03:38:16;;;;;;;;;0.00;0.00;11.30;99.90;;;;;;5032080;28;12318;-53
2021/12/31 03:40:46;;;;;;;;;0.50;0.50;11.30;99.90;;;;;;5016868;28;11518;-56
2021/12/31 03:43:17;;;;;;;;;0.00;0.00;11.30;99.90;;;;;;5031064;28;11498;-54
2021/12/31 03:45:50;;;;;;;;;0.50;0.50;11.30;99.90;;;;;;5033636;28;11494;-58
2021/12/31 03:48:22;;;;;;;;;1.00;1.00;11.30;99.90;;;;;;5028345;28;11541;-54
2021/12/31 03:50:53;;;;;;;;;0.00;0.00;11.30;99.90;;;;;;5029768;28;12190;-56
2021/12/31 03:53:24;;;;;;;;;1.25;1.00;11.30;99.90;;;;;;5027113;28;11498;-56
2021/12/31 03:55:55;;;;;;;;;0.75;0.75;11.30;99.90;;;;;;5010888;28;11478;-56
2021/12/31 03:58:26;;;;;;;;;1.00;1.00;11.30;99.90;;;;;;5032155;28;11889;-57
2021/12/31 04:00:56;;;;;;;;;0.50;0.50;11.30;99.90;;;;;;5027696;28;11516;-55
2021/12/31 04:03:27;;;;;;;;;1.00;1.00;11.20;99.90;;;;;;5031001;28;11620;-55
2021/12/31 04:05:58;;;;;;;;;1.00;1.00;11.20;99.90;;;;;;5013945;28;11546;-57
2021/12/31 04:08:31;;;;;;;;;1.25;1.25;11.20;99.90;;;;;;5031796;28;11489;-54
2021/12/31 04:11:03;;;;;;;;;1.50;1.50;11.20;99.90;;;;;;5027909;28;12292;-57
2021/12/31 04:13:34;;;;;;;;;1.00;1.00;11.20;99.90;;;;;;5003138;28;11459;-55
2021/12/31 04:16:05;;;;;;;;;0.50;0.50;11.20;99.90;;;;;;5026832;28;11673;-54
2021/12/31 04:18:36;;;;;;;;;1.00;1.00;11.20;99.90;;;;;;5016320;28;11593;-56
2021/12/31 04:21:08;;;;;;;;;1.00;1.00;11.20;99.90;;;;;;5030867;28;11478;-56
2021/12/31 04:23:49;;;;;;;;;1.00;1.00;11.20;99.90;;;;;;5028007;28;14314;-56
2021/12/31 04:26:20;;;;;;;;;2.00;2.00;11.20;99.90;;;;;;5009703;28;11494;-56
2021/12/31 04:28:51;;;;;;;;;1.50;1.50;11.20;99.90;;;;;;5033108;28;11544;-57
2021/12/31 04:31:21;;;;;;;;;2.00;2.00;11.20;99.90;;;;;;5027186;28;11508;-55
2021/12/31 04:33:52;;;;;;;;;1.00;1.00;11.20;99.90;;;;;;5029603;28;11530;-56
2021/12/31 04:36:24;;;;;;;;;2.00;2.00;11.20;99.90;;;;;;5032324;28;11630;-56
2021/12/31 04:38:55;;;;;;;;;1.75;1.75;11.20;99.90;;;;;;5033286;28;11502;-55
2021/12/31 04:41:25;;;;;;;;;1.25;1.25;11.20;99.90;;;;;;5036288;28;11668;-54
2021/12/31 04:43:58;;;;;;;;;4.50;1.50;11.20;99.90;;;;;;5035859;28;11593;-54
2021/12/31 04:46:29;;;;;;;;;1.00;1.00;11.20;99.90;;;;;;5028592;28;11522;-56
2021/12/31 04:49:01;;;;;;;;;0.50;0.50;11.20;99.90;;;;;;5031022;28;11480;-55
2021/12/31 04:51:30;;;;;;;;;3.25;3.25;11.20;99.90;;;;;;5036695;28;11490;-55
2021/12/31 04:54:00;;;;;;;;;2.00;2.00;11.30;99.90;;;;;;5032365;28;11538;-53
2021/12/31 04:56:30;;;;;;;;;0.75;0.75;11.20;99.90;;;;;;5017420;28;11534;-54
2021/12/31 04:59:00;;;;;;;;;3.00;2.25;11.20;99.90;;;;;;5029072;28;11514;-58
2021/12/31 05:01:30;;;;;;;;;3.25;3.25;11.30;99.90;;;;;;5029293;28;11476;-54
2021/12/31 05:04:01;;;;;;;;;1.50;1.50;11.20;99.90;;;;;;5035082;28;11490;-55
2021/12/31 05:06:33;;;;;;;;;2.00;2.00;11.20;99.90;;;;;;5015254;28;11479;-54
2021/12/31 05:09:03;;;;;;;;;4.50;4.50;11.20;99.90;;;;;;5031978;28;11672;-56
2021/12/31 05:11:35;;;;;;;;;18.75;18.75;11.20;99.90;;;;;;5031063;28;11497;-53
2021/12/31 05:14:07;;;;;;;;;17.75;15.00;11.20;99.90;;;;;;5031706;28;12316;-56
2021/12/31 05:16:38;;;;;;;;;9.50;9.00;11.20;99.90;;;;;;5032555;28;11579;-56
2021/12/31 05:19:11;;;;;;;;;7.25;7.25;11.20;99.90;;;;;;5028317;28;12157;-54
2021/12/31 05:21:42;;;;;;;;;10.75;10.75;11.10;99.90;;;;;;5032096;28;11574;-54
2021/12/31 05:24:17;;;;;;;;;13.00;13.00;11.20;99.90;;;;;;5028298;28;11509;-55
2021/12/31 05:26:49;;;;;;;;;19.25;19.25;11.20;99.90;;;;;;5032642;28;11550;-55
2021/12/31 05:29:22;;;;;;;;;31.50;31.50;11.20;99.90;;;;;;5035183;28;11532;-57
2021/12/31 05:31:56;;;;;;;;;34.50;28.75;11.20;99.90;;;;;;5029549;28;12473;-56
2021/12/31 05:34:27;;;;;;;;;24.75;24.50;11.20;99.90;;;;;;5028016;28;11556;-57
2021/12/31 05:36:59;;;;;;;;;17.00;14.50;11.20;99.90;;;;;;5008524;28;11554;-56
2021/12/31 05:39:30;;;;;;;;;15.50;13.00;11.20;99.90;;;;;;5035843;28;12321;-56
2021/12/31 05:42:01;;;;;;;;;8.25;8.25;11.20;99.90;;;;;;5031189;28;11659;-57
2021/12/31 05:44:31;;;;;;;;;8.75;8.75;11.20;99.90;;;;;;5029390;28;11500;-56
2021/12/31 05:47:01;;;;;;;;;5.50;5.50;11.20;99.90;;;;;;5026201;28;11483;-58
2021/12/31 05:49:32;;;;;;;;;6.75;6.00;11.20;99.90;;;;;;5030415;28;11464;-57
2021/12/31 05:52:03;;;;;;;;;5.25;5.25;11.20;99.90;;;;;;5026665;28;12082;-57
2021/12/31 05:54:33;;;;;;;;;7.00;7.00;11.10;99.90;;;;;;5001591;28;12171;-56
2021/12/31 05:57:05;;;;;;;;;5.00;5.00;11.10;99.90;;;;;;5029776;28;11544;-56
2021/12/31 05:59:36;;;;;;;;;5.00;5.00;11.10;99.90;;;;;;5017471;28;11527;-56
2021/12/31 06:02:10;;;;;;;;;2.25;2.25;11.20;99.90;;;;;;5031554;28;11488;-55
2021/12/31 06:04:43;;;;;;;;;2.50;2.50;11.10;99.90;;;;;;5017186;28;11538;-60
2021/12/31 06:07:13;;;;;;;;;2.25;2.25;11.10;99.90;;;;;;5033257;28;11479;-58
2021/12/31 06:09:45;;;;;;;;;2.00;2.00;11.10;99.90;;;;;;5026088;28;11534;-59
2021/12/31 06:12:17;;;;;;;;;2.00;2.00;11.10;99.90;;;;;;5026995;28;11524;-56
2021/12/31 06:14:48;;;;;;;;;1.50;1.25;11.10;99.90;;;;;;5024459;28;11515;-56
2021/12/31 06:17:23;;;;;;;;;3.00;3.00;11.10;99.90;;;;;;5026762;28;12891;-57
2021/12/31 06:19:55;;;;;;;;;3.00;3.00;11.10;99.90;;;;;;5028762;28;11523;-56
2021/12/31 06:22:25;;;;;;;;;3.00;3.00;11.10;99.90;;;;;;5026677;28;11545;-56
2021/12/31 06:24:56;;;;;;;;;2.00;2.00;11.10;99.90;;;;;;5025228;28;11574;-48
2021/12/31 06:27:27;;;;;;;;;1.00;1.00;11.10;99.90;;;;;;5026088;28;11536;-47
2021/12/31 06:29:59;;;;;;;;;2.00;2.00;11.10;99.90;;;;;;5026758;28;12499;-56
2021/12/31 06:32:30;;;;;;;;;2.00;2.00;11.10;99.90;;;;;;5026485;28;12320;-57
2021/12/31 06:35:01;;;;;;;;;2.00;2.00;11.10;99.90;;;;;;5024364;28;11507;-57
2021/12/31 06:37:33;;;;;;;;;1.00;1.00;11.10;99.90;;;;;;5028298;28;11507;-55
2021/12/31 06:40:06;;;;;;;;;1.00;1.00;11.10;99.90;;;;;;5012819;28;13619;-57
2021/12/31 06:42:36;;;;;;;;;2.00;2.00;11.10;99.90;;;;;;5027092;28;11501;-57
2021/12/31 06:45:07;;;;;;;;;1.00;1.00;11.10;99.90;;;;;;5014423;28;11519;-56
2021/12/31 06:47:42;;;;;;;;;2.00;2.00;11.20;99.90;;;;;;5023911;28;11517;-57
2021/12/31 06:50:13;;;;;;;;;1.00;1.00;11.20;99.90;;;;;;5009328;28;11529;-56
2021/12/31 06:52:45;;;;;;;;;3.25;3.25;11.10;99.90;;;;;;5011747;28;11569;-55
2021/12/31 06:55:16;;;;;;;;;5.00;5.00;11.10;99.90;;;;;;5032622;28;11511;-57
2021/12/31 06:57:49;;;;;;;;;4.75;3.75;11.10;99.90;;;;;;5029103;28;11512;-57
2021/12/31 07:00:25;;;;;;;;;2.25;2.25;11.10;99.90;;;;;;5011878;28;11555;-54
2021/12/31 07:03:05;;;;;;;;;3.00;3.00;11.10;99.90;;;;;;5029700;28;11519;-56
2021/12/31 07:05:36;;;;;;;;;3.00;3.00;11.10;99.90;;;;;;5027594;28;11476;-57
2021/12/31 07:08:08;;;;;;;;;3.00;3.00;11.10;99.90;;;;;;5026177;28;11528;-56
2021/12/31 07:10:39;;;;;;;;;3.00;3.00;11.10;99.90;;;;;;5017573;28;11530;-56
2021/12/31 07:13:12;;;;;;;;;2.50;2.50;11.10;99.90;;;;;;5033622;28;11505;-57
2021/12/31 07:15:48;;;;;;;;;2.00;2.00;11.10;99.90;;;;;;5033566;28;11474;-57
2021/12/31 07:18:20;;;;;;;;;1.00;1.00;11.00;99.90;;;;;;5029612;28;11636;-57
2021/12/31 07:20:50;;;;;;;;;1.25;1.25;11.00;99.90;;;;;;5032290;28;11484;-57
2021/12/31 07:23:22;;;;;;;;;0.75;0.75;11.00;99.90;;;;;;5030485;28;11534;-56
2021/12/31 07:25:53;;;;;;;;;1.50;0.00;11.00;99.90;;;;;;5016987;28;11489;-56
2021/12/31 07:28:24;;;;;;;;;1.00;1.00;11.00;99.90;;;;;;5030837;28;11509;-56
2021/12/31 07:30:54;;;;;;;;;2.00;0.00;11.00;99.90;;;;;;5032540;28;11479;-56
2021/12/31 07:33:26;;;;;;;;;0.50;0.50;11.00;99.90;;;;;;5033110;28;11626;-56
2021/12/31 07:35:57;;;;;;;;;0.75;0.75;11.00;99.90;;;;;;5030068;28;11481;-57
2021/12/31 07:38:33;;;;;;;;;3.00;1.25;11.00;99.90;;;;;;5029177;28;11475;-57
2021/12/31 07:41:06;;;;;;;;;2.00;2.00;11.00;99.90;;;;;;5027586;28;11654;-56
2021/12/31 07:43:38;;;;;;;;;0.75;0.00;11.10;99.90;;;;;;5025580;28;11510;-57
2021/12/31 07:46:09;;;;;;;;;1.75;0.75;11.00;99.90;;;;;;4994724;28;11541;-57
2021/12/31 07:48:40;;;;;;;;;2.00;2.00;11.00;99.90;;;;;;5025350;28;11479;-57
2021/12/31 07:51:10;;;;;;;;;1.25;1.25;10.90;99.90;;;;;;5027692;28;11502;-57
2021/12/31 07:53:43;;;;;;;;;2.00;2.00;11.00;99.90;;;;;;5030658;28;12368;-55
2021/12/31 07:56:18;;;;;;;;;1.00;1.00;10.90;99.90;;;;;;5025931;28;11506;-55
2021/12/31 07:58:48;;;;;;;;;0.75;0.75;10.90;99.90;;;;;;5018715;28;11482;-55
2021/12/31 08:01:19;;;;;;;;;1.00;1.00;10.90;99.90;;;;;;5015175;28;11504;-58
2021/12/31 08:03:49;;;;;;;;;2.00;2.00;10.90;99.90;;;;;;5032797;28;11558;-56
2021/12/31 08:06:20;;;;;;;;;2.00;2.00;10.90;99.90;;;;;;5029457;28;11489;-55
2021/12/31 08:08:52;;;;;;;;;3.25;3.25;10.90;99.90;;;;;;5032149;28;11534;-56
2021/12/31 08:11:23;;;;;;;;;9.25;7.75;10.90;99.90;;;;;;5028168;28;11491;-56
2021/12/31 08:13:55;;;;;;;;;19.50;19.50;10.90;99.90;;;;;;5032312;28;11469;-57
2021/12/31 08:16:27;;;;;;;;;10.75;10.75;10.90;99.90;;;;;;5032985;28;11622;-55
2021/12/31 08:18:57;;;;;;;;;3.75;3.75;10.80;99.90;;;;;;5034347;28;11552;-57
2021/12/31 08:21:27;;;;;;;;;6.50;6.25;10.80;99.90;;;;;;5032767;28;11529;-57
2021/12/31 08:23:58;;;;;;;;;5.50;5.50;10.80;99.90;;;;;;5033463;28;11504;-56
2021/12/31 08:26:30;;;;;;;;;1.00;1.00;10.80;99.90;;;;;;5027430;28;11503;-55
2021/12/31 08:29:01;;;;;;;;;1.25;1.25;10.80;99.90;;;;;;5031307;28;11649;-56
2021/12/31 08:31:32;;;;;;;;;3.50;2.50;10.80;99.90;;;;;;5028899;28;11535;-55
2021/12/31 08:34:03;;;;;;;;;3.75;3.75;10.70;99.90;;;;;;5029503;28;11605;-56
2021/12/31 08:36:32;;;;;;;;;2.00;2.00;10.70;99.90;;;;;;5028200;28;10989;-56
2021/12/31 08:39:09;;;;;;;;;0.50;0.50;10.70;99.90;;;;;;5027299;28;11879;-56
2021/12/31 08:41:44;;;;;;;;;0.00;0.00;10.70;99.90;;;;;;5027084;28;11988;-56
2021/12/31 08:44:17;;;;;;;;;1.00;1.00;10.70;99.90;;;;;;5031814;28;11486;-56
2021/12/31 08:46:48;;;;;;;;;0.00;0.00;10.70;99.90;;;;;;5028104;28;11530;-57
2021/12/31 08:49:19;;;;;;;;;0.75;0.75;10.70;99.90;;;;;;5014573;28;12355;-57
2021/12/31 08:51:50;;;;;;;;;0.75;0.75;10.70;99.90;;;;;;5028612;28;11479;-57
2021/12/31 08:54:23;;;;;;;;;2.00;2.00;10.70;99.90;;;;;;5030921;28;11487;-57
2021/12/31 08:56:58;;;;;;;;;1.00;1.00;10.70;99.90;;;;;;5023048;28;11536;-57
2021/12/31 08:59:29;;;;;;;;;1.00;1.00;10.60;99.90;;;;;;5027815;28;11483;-57
2021/12/31 09:01:59;;;;;;;;;1.00;1.00;10.60;99.90;;;;;;5030269;28;11489;-56
2021/12/31 09:04:30;;;;;;;;;1.25;1.25;10.60;99.90;;;;;;5030518;28;11516;-56
2021/12/31 09:07:01;;;;;;;;;1.00;1.00;10.50;99.90;;;;;;5033066;28;11532;-58
2021/12/31 09:09:31;;;;;;;;;1.00;1.00;10.50;99.90;;;;;;5028801;28;11496;-56
2021/12/31 09:12:02;;;;;;;;;1.00;1.00;10.40;99.90;;;;;;5027797;28;11516;-56
2021/12/31 09:14:34;;;;;;;;;0.25;0.25;10.40;99.90;;;;;;5031581;28;11641;-57
2021/12/31 09:17:04;;;;;;;;;0.50;0.50;10.40;99.90;;;;;;5030318;28;11490;-55
2021/12/31 09:19:34;;;;;;;;;1.00;1.00;10.40;99.90;;;;;;5027950;28;11472;-56
2021/12/31 09:22:06;;;;;;;;;1.00;1.00;10.40;99.90;;;;;;5026119;28;11722;-56
2021/12/31 09:24:37;;;;;;;;;1.00;1.00;10.40;99.90;;;;;;5025572;28;11497;-56
2021/12/31 09:27:08;;;;;;;;;2.25;1.00;10.40;99.90;;;;;;5031910;28;11516;-56
2021/12/31 09:29:39;;;;;;;;;1.00;1.00;10.40;99.90;;;;;;5029296;28;11519;-55
2021/12/31 09:32:09;;;;;;;;;3.00;1.00;10.40;99.90;;;;;;5028050;28;11472;-56
2021/12/31 09:34:44;;;;;;;;;1.00;1.00;10.30;99.90;;;;;;5024319;28;11653;-57
2021/12/31 09:37:15;;;;;;;;;3.00;1.50;10.30;99.90;;;;;;5032118;28;11642;-55
2021/12/31 09:39:47;;;;;;;;;1.00;1.00;10.30;99.90;;;;;;5028368;28;11545;-56
2021/12/31 09:42:20;;;;;;;;;1.25;1.00;10.30;99.90;;;;;;5030954;28;11809;-55
2021/12/31 09:44:51;;;;;;;;;1.00;1.00;10.30;99.90;;;;;;5028472;28;11652;-56
2021/12/31 09:47:22;;;;;;;;;1.00;1.00;10.20;99.90;;;;;;5016860;28;11498;-57
2021/12/31 09:49:53;;;;;;;;;2.50;2.50;10.20;99.90;;;;;;5031081;28;11613;-55
2021/12/31 09:52:32;;;;;;;;;2.50;2.50;10.20;99.90;;;;;;5031234;28;11497;-56
2021/12/31 09:55:02;;;;;;;;;1.75;1.75;10.20;99.90;;;;;;5027802;28;11549;-57
2021/12/31 09:57:34;;;;;;;;;0.25;0.25;10.10;99.90;;;;;;5026823;28;11523;-56
2021/12/31 10:00:06;;;;;;;;;5.50;4.00;10.10;99.90;;;;;;5026422;28;11498;-57
2021/12/31 10:02:38;;;;;;;;;9.50;9.25;10.10;99.90;;;;;;5031422;28;11503;-55
2021/12/31 10:05:15;;;;;;;;;4.00;4.00;10.20;99.90;;;;;;5024659;28;11652;-55
2021/12/31 10:07:47;;;;;;;;;2.00;2.00;10.20;99.90;;;;;;5029118;28;11526;-57
2021/12/31 10:10:16;;;;;;;;;3.00;2.00;10.10;99.90;;;;;;5020111;28;11534;-55
2021/12/31 10:12:59;;;;;;;;;3.00;3.00;10.10;99.90;;;;;;5029554;28;11518;-56
2021/12/31 10:15:39;;;;;;;;;2.00;2.00;10.10;99.90;;;;;;5027584;28;11502;-56
2021/12/31 10:18:15;;;;;;;;;1.00;1.00;10.00;99.90;;;;;;5029027;28;11737;-56
2021/12/31 10:20:50;;;;;;;;;2.00;2.00;10.00;99.90;;;;;;5012169;28;11510;-58
2021/12/31 10:23:21;;;;;;;;;2.00;2.00;10.00;99.90;;;;;;5032219;28;11527;-58
2021/12/31 10:25:50;;;;;;;;;2.00;2.00;9.90;99.90;;;;;;5027965;28;11705;-54
2021/12/31 10:28:22;;;;;;;;;3.25;3.25;9.80;99.90;;;;;;5023990;28;11538;-55
2021/12/31 10:31:11;;;;;;;;;2.25;2.25;9.80;99.90;;;;;;5028629;28;11443;-55
2021/12/31 10:33:45;;;;;;;;;2.00;2.00;9.80;99.90;;;;;;5031439;28;11516;-55
2021/12/31 10:36:37;;;;;;;;;2.00;2.00;9.80;99.90;;;;;;5033966;28;11550;-55
2021/12/31 10:39:27;;;;;;;;;3.00;3.00;9.80;99.90;;;;;;5014114;28;11518;-55
2021/12/31 10:42:02;;;;;;;;;2.50;2.50;9.80;99.90;;;;;;5012867;28;11501;-55
2021/12/31 10:44:47;;;;;;;;;2.75;2.75;9.70;99.90;;;;;;5030972;28;11659;-60
2021/12/31 10:47:37;;;;;;;;;2.00;2.00;9.70;99.90;;;;;;5015185;28;11475;-57
2021/12/31 10:50:19;;;;;;;;;1.50;1.50;9.70;99.90;;;;;;5029735;28;11504;-56
2021/12/31 10:53:03;;;;;;;;;2.00;2.00;9.70;99.90;;;;;;5029765;28;11487;-57
2021/12/31 10:55:39;;;;;;;;;2.00;2.00;9.70;99.90;;;;;;5023603;28;11566;-56
2021/12/31 10:58:16;;;;;;;;;2.50;2.50;9.60;99.90;;;;;;5029764;28;11661;-55
2021/12/31 11:00:47;;;;;;;;;3.50;3.00;9.60;99.90;;;;;;5023376;28;11528;-56
2021/12/31 11:03:19;;;;;;;;;2.75;2.75;9.50;99.90;;;;;;5027668;28;11690;-54
2021/12/31 11:05:51;;;;;;;;;3.25;3.25;9.50;99.90;;;;;;5010657;28;11481;-59
2021/12/31 11:08:23;;;;;;;;;3.00;1.50;9.40;99.90;;;;;;5027194;28;12239;-56
2021/12/31 11:10:58;;;;;;;;;3.00;3.00;9.50;99.90;;;;;;5027582;28;11532;-59
2021/12/31 11:13:30;;;;;;;;;2.25;2.25;9.50;99.90;;;;;;5030101;28;11506;-57
2021/12/31 11:16:01;;;;;;;;;3.00;3.00;9.50;99.90;;;;;;5030382;28;11511;-56
2021/12/31 11:18:31;;;;;;;;;3.75;3.50;9.50;99.90;;;;;;5026582;28;11548;-57
2021/12/31 11:21:05;;;;;;;;;4.50;4.50;9.50;99.90;;;;;;5024289;28;11621;-56
2021/12/31 11:23:40;;;;;;;;;3.25;3.25;9.40;99.90;;;;;;5028407;28;11590;-56
2021/12/31 11:26:15;;;;;;;;;3.75;3.75;9.40;99.90;;;;;;5027141;28;11484;-56
2021/12/31 11:28:47;;;;;;;;;5.00;3.50;9.40;99.90;;;;;;5015384;28;11501;-57
2021/12/31 11:31:17;;;;;;;;;2.50;2.50;9.30;99.90;;;;;;5026517;28;11473;-55
2021/12/31 11:34:00;;;;;;;;;2.00;0.00;9.30;99.90;;;;;;5028657;28;11530;-56
2021/12/31 11:36:57;;;;;;;;;3.75;1.50;9.30;99.90;;;;;;5008150;28;11550;-55
2021/12/31 11:39:29;;;;;;;;;3.75;3.75;9.20;99.90;;;;;;5028443;28;12827;-55
2021/12/31 11:42:07;;;;;;;;;3.00;2.00;9.20;99.90;;;;;;5025672;28;11558;-56
2021/12/31 11:45:04;;;;;;;;;3.25;3.25;9.20;99.90;;;;;;5013413;28;11543;-57
2021/12/31 11:47:37;;;;;;;;;2.75;2.75;9.20;99.90;;;;;;5027998;28;11512;-57
2021/12/31 11:50:27;;;;;;;;;3.00;3.00;9.20;99.90;;;;;;5029251;28;11511;-56
2021/12/31 11:53:04;;;;;;;;;1.75;1.50;9.10;99.90;;;;;;5026945;28;11529;-56
2021/12/31 11:55:45;;;;;;;;;3.25;3.25;9.10;99.90;;;;;;5026100;28;11523;-55
2021/12/31 11:58:37;;;;;;;;;2.00;2.00;9.10;99.90;;;;;;5016019;28;11510;-56
2021/12/31 12:01:36;;;;;;;;;3.75;3.75;9.00;99.90;;;;;;5029820;28;12501;-57
2021/12/31 12:04:30;;;;;;;;;1.00;1.00;9.00;99.90;;;;;;5027602;28;11510;-53
2021/12/31 12:07:05;;;;;;;;;2.25;2.25;8.90;99.90;;;;;;5026341;28;11514;-56
2021/12/31 12:09:37;;;;;;;;;2.25;2.25;8.90;99.90;;;;;;5007099;28;11549;-56
2021/12/31 12:12:15;;;;;;;;;3.00;3.00;8.90;99.90;;;;;;5028625;28;11533;-55
2021/12/31 12:14:54;;;;;;;;;2.00;2.00;8.80;99.90;;;;;;5013042;28;11463;-56
2021/12/31 12:17:30;;;;;;;;;2.25;2.25;8.80;99.90;;;;;;5032729;28;11557;-56
2021/12/31 12:20:03;;;;;;;;;2.00;2.00;8.80;99.90;;;;;;5031261;28;11562;-56
2021/12/31 12:22:40;;;;;;;;;0.50;0.50;8.90;99.90;;;;;;5029898;28;11484;-56
2021/12/31 12:25:18;;;;;;;;;3.75;3.75;8.80;99.90;;;;;;5027363;28;11505;-57
2021/12/31 12:27:56;;;;;;;;;3.25;3.25;8.70;99.90;;;;;;5028611;28;11496;-57
2021/12/31 12:30:29;;;;;;;;;2.25;2.25;8.80;99.90;;;;;;5028434;28;11518;-56
2021/12/31 12:35:43;;;;;;;;;4.00;4.00;8.70;99.90;;;;;;5032747;28;11567;-56
2021/12/31 12:38:22;;;;;;;;;1.00;1.00;8.80;99.90;;;;;;5028934;28;11671;-57
2021/12/31 12:40:59;;;;;;;;;1.25;1.25;8.80;99.90;;;;;;5028671;28;11477;-56
2021/12/31 12:43:36;;;;;;;;;3.00;3.00;8.80;99.90;;;;;;5011943;28;12436;-57
2021/12/31 12:46:16;;;;;;;;;3.00;3.00;8.70;99.90;;;;;;5035002;28;11522;-56
2021/12/31 12:48:57;;;;;;;;;3.75;1.50;8.80;99.90;;;;;;5027520;28;11505;-55
2021/12/31 12:51:32;;;;;;;;;2.75;2.75;8.70;99.90;;;;;;5013683;28;11506;-57
2021/12/31 12:54:03;;;;;;;;;4.75;3.75;8.60;99.90;;;;;;5027868;28;12261;-59
2021/12/31 12:56:35;;;;;;;;;2.75;2.75;8.60;99.90;;;;;;5013739;28;11608;-57
2021/12/31 12:59:05;;;;;;;;;4.00;4.00;8.60;99.90;;;;;;5028991;28;11535;-57
2021/12/31 13:01:48;;;;;;;;;3.75;3.75;8.60;99.90;;;;;;5036380;28;11491;-56
2021/12/31 13:04:19;;;;;;;;;3.00;3.00;8.60;99.90;;;;;;5012905;28;12206;-57
2021/12/31 13:07:07;;;;;;;;;4.00;4.00;8.60;99.90;;;;;;5036379;28;11481;-57
2021/12/31 13:09:37;;;;;;;;;2.75;2.75;8.50;99.90;;;;;;5029248;28;12252;-57
2021/12/31 13:12:10;;;;;;;;;4.25;4.25;8.50;99.90;;;;;;5036047;28;12210;-59
2021/12/31 13:14:40;;;;;;;;;4.50;4.00;8.50;99.90;;;;;;5030459;28;11549;-57
2021/12/31 13:17:25;;;;;;;;;2.50;2.50;8.40;99.90;;;;;;5032631;28;11520;-59
2021/12/31 13:20:28;;;;;;;;;4.25;4.25;8.50;99.90;;;;;;5030600;28;11668;-58
2021/12/31 13:23:09;;;;;;;;;3.00;2.25;8.40;99.90;;;;;;5004287;28;11503;-58